sensor_id;sensor_type;location;lat;lon;timestamp;P1;P2;P0
13030;PMS7003;6582;54.644;9.760;2023-02-22T00:00:01;111.3;105.7;
13030;PMS7003;6582;54.644;9.760;2023-02-22T00:05:03;118.1;113.8;
13030;PMS7003;6582;54.644;9.760;2023-02-22T00:10:06;117.8;114.2;
13030;PMS7003;6582;54.644;9.760;2023-02-22T00:15:07;106.4;103.4;
13030;PMS7003;6582;54.644;9.760;2023-02-22T00:20:02;121.8;119.6;
13030;PMS7003;6582;54.644;9.760;2023-02-22T00:30:03;136.2;134.0;
13030;PMS7003;6582;54.644;9.760;2023-02-22T00:35:01;134.9;132.8;
13030;PMS7003;6582;54.644;9.760;2023-02-22T00:40:02;135.5;133.3;
13030;PMS7003;6582;54.644;9.760;2023-02-22T00:45:02;147.6;146.2;
13030;PMS7003;6582;54.644;9.760;2023-02-22T00:50:07;134.2;132.8;
13030;PMS7003;6582;54.644;9.760;2023-02-22T00:55:02;116.4;112.8;
13030;PMS7003;6582;54.644;9.760;2023-02-22T01:00:06;149.6;145.8;
13030;PMS7003;6582;54.644;9.760;2023-02-22T01:05:02;168.1;164.2;
13030;PMS7003;6582;54.644;9.760;2023-02-22T01:10:01;178.2;174.1;
13030;PMS7003;6582;54.644;9.760;2023-02-22T01:15:07;184.4;179.7;
13030;PMS7003;6582;54.644;9.760;2023-02-22T01:20:07;186.7;183.0;
13030;PMS7003;6582;54.644;9.760;2023-02-22T01:25:07;148.8;144.1;
13030;PMS7003;6582;54.644;9.760;2023-02-22T01:30:07;124.4;117.2;
13030;PMS7003;6582;54.644;9.760;2023-02-22T01:35:13;108.5;98.6;
13030;PMS7003;6582;54.644;9.760;2023-02-22T01:40:08;98.5;86.9;
13030;PMS7003;6582;54.644;9.760;2023-02-22T02:00:09;110.0;105.8;
13030;PMS7003;6582;54.644;9.760;2023-02-22T02:10:04;173.2;170.7;
13030;PMS7003;6582;54.644;9.760;2023-02-22T02:50:04;284.6;283.4;
13030;PMS7003;6582;54.644;9.760;2023-02-22T02:55:03;143.3;142.7;
13030;PMS7003;6582;54.644;9.760;2023-02-22T03:00:02;108.5;107.3;
13030;PMS7003;6582;54.644;9.760;2023-02-22T03:05:14;96.1;93.5;
13030;PMS7003;6582;54.644;9.760;2023-02-22T03:30:04;93.0;80.0;
13030;PMS7003;6582;54.644;9.760;2023-02-22T03:35:06;93.2;80.5;
13030;PMS7003;6582;54.644;9.760;2023-02-22T03:40:03;76.1;67.5;
13030;PMS7003;6582;54.644;9.760;2023-02-22T03:45:02;78.1;68.5;
13030;PMS7003;6582;54.644;9.760;2023-02-22T03:50:06;81.0;71.3;
13030;PMS7003;6582;54.644;9.760;2023-02-22T03:55:02;78.8;69.5;
13030;PMS7003;6582;54.644;9.760;2023-02-22T04:00:02;72.8;64.3;
13030;PMS7003;6582;54.644;9.760;2023-02-22T04:05:01;77.0;67.0;
13030;PMS7003;6582;54.644;9.760;2023-02-22T04:10:01;72.8;63.7;
13030;PMS7003;6582;54.644;9.760;2023-02-22T04:15:01;65.1;56.8;
13030;PMS7003;6582;54.644;9.760;2023-02-22T04:20:01;62.4;54.1;
13030;PMS7003;6582;54.644;9.760;2023-02-22T04:25:01;59.7;51.9;
13030;PMS7003;6582;54.644;9.760;2023-02-22T04:30:02;55.1;48.4;
13030;PMS7003;6582;54.644;9.760;2023-02-22T04:35:07;62.1;55.2;
13030;PMS7003;6582;54.644;9.760;2023-02-22T04:40:01;69.8;62.3;
13030;PMS7003;6582;54.644;9.760;2023-02-22T04:45:02;75.1;67.6;
13030;PMS7003;6582;54.644;9.760;2023-02-22T04:50:02;70.1;63.7;
13030;PMS7003;6582;54.644;9.760;2023-02-22T04:55:01;80.8;72.2;
13030;PMS7003;6582;54.644;9.760;2023-02-22T05:00:06;78.8;69.0;
13030;PMS7003;6582;54.644;9.760;2023-02-22T05:05:01;78.5;68.0;
13030;PMS7003;6582;54.644;9.760;2023-02-22T05:10:02;76.8;65.4;
13030;PMS7003;6582;54.644;9.760;2023-02-22T05:15:02;90.8;77.2;
13030;PMS7003;6582;54.644;9.760;2023-02-22T05:20:02;90.0;76.5;
13030;PMS7003;6582;54.644;9.760;2023-02-22T05:25:01;89.8;76.7;
13030;PMS7003;6582;54.644;9.760;2023-02-22T05:30:16;88.4;75.3;
13030;PMS7003;6582;54.644;9.760;2023-02-22T05:35:02;71.9;61.8;
13030;PMS7003;6582;54.644;9.760;2023-02-22T05:40:01;68.2;57.8;
13030;PMS7003;6582;54.644;9.760;2023-02-22T05:45:01;61.7;52.6;
13030;PMS7003;6582;54.644;9.760;2023-02-22T05:50:01;58.0;49.7;
13030;PMS7003;6582;54.644;9.760;2023-02-22T05:55:01;57.6;49.6;
13030;PMS7003;6582;54.644;9.760;2023-02-22T06:00:03;69.8;60.0;
13030;PMS7003;6582;54.644;9.760;2023-02-22T06:05:03;68.7;59.1;
13030;PMS7003;6582;54.644;9.760;2023-02-22T06:10:01;67.9;58.5;
13030;PMS7003;6582;54.644;9.760;2023-02-22T06:15:02;60.9;52.9;
13030;PMS7003;6582;54.644;9.760;2023-02-22T06:20:02;65.0;58.3;
13030;PMS7003;6582;54.644;9.760;2023-02-22T06:25:09;72.2;66.4;
13030;PMS7003;6582;54.644;9.760;2023-02-22T06:30:02;77.9;72.8;
13030;PMS7003;6582;54.644;9.760;2023-02-22T06:35:01;87.8;83.1;
13030;PMS7003;6582;54.644;9.760;2023-02-22T06:40:06;101.9;96.8;
13030;PMS7003;6582;54.644;9.760;2023-02-22T06:45:02;101.2;96.0;
13030;PMS7003;6582;54.644;9.760;2023-02-22T06:50:07;100.2;94.0;
13030;PMS7003;6582;54.644;9.760;2023-02-22T06:55:02;100.5;94.4;
13030;PMS7003;6582;54.644;9.760;2023-02-22T07:00:11;100.9;95.5;
13030;PMS7003;6582;54.644;9.760;2023-02-22T07:05:01;99.6;93.2;
13030;PMS7003;6582;54.644;9.760;2023-02-22T07:10:02;99.5;92.9;
13030;PMS7003;6582;54.644;9.760;2023-02-22T07:15:01;98.8;91.6;
13030;PMS7003;6582;54.644;9.760;2023-02-22T07:20:06;99.6;92.8;
13030;PMS7003;6582;54.644;9.760;2023-02-22T07:25:02;97.6;89.2;
13030;PMS7003;6582;54.644;9.760;2023-02-22T07:30:02;95.8;87.3;
13030;PMS7003;6582;54.644;9.760;2023-02-22T07:35:01;88.8;80.1;
13030;PMS7003;6582;54.644;9.760;2023-02-22T07:40:01;83.3;75.4;
13030;PMS7003;6582;54.644;9.760;2023-02-22T07:45:01;75.7;67.0;
13030;PMS7003;6582;54.644;9.760;2023-02-22T07:50:06;72.4;63.3;
13030;PMS7003;6582;54.644;9.760;2023-02-22T07:55:01;70.3;60.7;
13030;PMS7003;6582;54.644;9.760;2023-02-22T08:00:02;71.1;61.4;
13030;PMS7003;6582;54.644;9.760;2023-02-22T08:05:02;75.1;64.7;
13030;PMS7003;6582;54.644;9.760;2023-02-22T08:10:01;84.7;75.7;
13030;PMS7003;6582;54.644;9.760;2023-02-22T08:15:03;74.2;67.4;
13030;PMS7003;6582;54.644;9.760;2023-02-22T08:20:01;82.7;77.9;
13030;PMS7003;6582;54.644;9.760;2023-02-22T08:25:01;91.4;88.5;
13030;PMS7003;6582;54.644;9.760;2023-02-22T08:30:01;97.0;96.4;
13030;PMS7003;6582;54.644;9.760;2023-02-22T08:35:01;96.6;96.2;
13030;PMS7003;6582;54.644;9.760;2023-02-22T08:40:03;116.0;115.6;
13030;PMS7003;6582;54.644;9.760;2023-02-22T08:45:01;116.4;116.3;
13030;PMS7003;6582;54.644;9.760;2023-02-22T08:50:01;115.1;114.6;
13030;PMS7003;6582;54.644;9.760;2023-02-22T08:55:01;116.5;116.0;
13030;PMS7003;6582;54.644;9.760;2023-02-22T09:00:03;113.1;111.2;
13030;PMS7003;6582;54.644;9.760;2023-02-22T09:05:02;112.3;110.3;
13030;PMS7003;6582;54.644;9.760;2023-02-22T09:10:01;119.4;116.8;
13030;PMS7003;6582;54.644;9.760;2023-02-22T09:15:01;122.1;119.9;
13030;PMS7003;6582;54.644;9.760;2023-02-22T09:20:03;123.9;121.6;
13030;PMS7003;6582;54.644;9.760;2023-02-22T09:25:18;129.4;128.7;
13030;PMS7003;6582;54.644;9.760;2023-02-22T09:30:02;133.0;132.3;
13030;PMS7003;6582;54.644;9.760;2023-02-22T09:35:07;129.1;128.9;
13030;PMS7003;6582;54.644;9.760;2023-02-22T09:40:02;129.8;129.6;
13030;PMS7003;6582;54.644;9.760;2023-02-22T09:45:04;128.9;128.6;
13030;PMS7003;6582;54.644;9.760;2023-02-22T09:50:03;126.6;125.5;
13030;PMS7003;6582;54.644;9.760;2023-02-22T09:55:07;122.3;120.8;
13030;PMS7003;6582;54.644;9.760;2023-02-22T10:00:06;118.6;116.8;
13030;PMS7003;6582;54.644;9.760;2023-02-22T10:05:11;118.1;115.8;
13030;PMS7003;6582;54.644;9.760;2023-02-22T10:10:02;116.2;113.8;
13030;PMS7003;6582;54.644;9.760;2023-02-22T10:15:15;117.9;116.1;
13030;PMS7003;6582;54.644;9.760;2023-02-22T10:30:29;107.6;107.6;
13030;PMS7003;6582;54.644;9.760;2023-02-22T10:35:02;108.5;107.2;
13030;PMS7003;6582;54.644;9.760;2023-02-22T10:40:11;108.7;107.7;
13030;PMS7003;6582;54.644;9.760;2023-02-22T10:45:02;109.3;108.4;
13030;PMS7003;6582;54.644;9.760;2023-02-22T10:50:02;108.3;107.2;
13030;PMS7003;6582;54.644;9.760;2023-02-22T10:55:17;110.0;108.8;
13030;PMS7003;6582;54.644;9.760;2023-02-22T11:20:01;99.6;95.6;
13030;PMS7003;6582;54.644;9.760;2023-02-22T11:25:03;100.7;97.3;
13030;PMS7003;6582;54.644;9.760;2023-02-22T11:50:03;85.8;71.8;
13030;PMS7003;6582;54.644;9.760;2023-02-22T11:55:08;84.2;68.4;
13030;PMS7003;6582;54.644;9.760;2023-02-22T12:20:04;88.0;78.0;
13030;PMS7003;6582;54.644;9.760;2023-02-22T12:25:16;83.5;71.4;
13030;PMS7003;6582;54.644;9.760;2023-02-22T12:30:04;87.7;77.3;
13030;PMS7003;6582;54.644;9.760;2023-02-22T12:35:09;86.4;75.1;
13030;PMS7003;6582;54.644;9.760;2023-02-22T12:45:19;86.7;75.6;
13030;PMS7003;6582;54.644;9.760;2023-02-22T12:50:04;89.5;79.9;
13030;PMS7003;6582;54.644;9.760;2023-02-22T12:55:06;91.4;82.7;
13030;PMS7003;6582;54.644;9.760;2023-02-22T13:00:04;91.1;82.2;
13030;PMS7003;6582;54.644;9.760;2023-02-22T13:05:02;93.1;85.7;
13030;PMS7003;6582;54.644;9.760;2023-02-22T13:10:06;93.6;86.6;
13030;PMS7003;6582;54.644;9.760;2023-02-22T13:30:02;98.4;94.2;
13030;PMS7003;6582;54.644;9.760;2023-02-22T13:35:07;108.6;106.5;
13030;PMS7003;6582;54.644;9.760;2023-02-22T13:40:19;104.1;100.2;
13030;PMS7003;6582;54.644;9.760;2023-02-22T14:00:18;96.8;90.8;
13030;PMS7003;6582;54.644;9.760;2023-02-22T14:05:33;95.9;89.5;
13030;PMS7003;6582;54.644;9.760;2023-02-22T14:20:03;150.2;141.4;
13030;PMS7003;6582;54.644;9.760;2023-02-22T14:25:02;121.0;112.2;
13030;PMS7003;6582;54.644;9.760;2023-02-22T14:30:02;111.1;102.1;
13030;PMS7003;6582;54.644;9.760;2023-02-22T14:35:04;106.1;97.4;
13030;PMS7003;6582;54.644;9.760;2023-02-22T14:40:03;103.7;95.4;
13030;PMS7003;6582;54.644;9.760;2023-02-22T14:45:15;92.2;83.7;
13030;PMS7003;6582;54.644;9.760;2023-02-22T14:50:03;92.6;84.4;
13030;PMS7003;6582;54.644;9.760;2023-02-22T14:55:05;93.2;85.4;
13030;PMS7003;6582;54.644;9.760;2023-02-22T15:00:05;94.8;87.0;
13030;PMS7003;6582;54.644;9.760;2023-02-22T15:05:11;96.4;89.8;
13030;PMS7003;6582;54.644;9.760;2023-02-22T15:10:07;98.0;92.6;
13030;PMS7003;6582;54.644;9.760;2023-02-22T15:30:05;94.8;86.8;
13030;PMS7003;6582;54.644;9.760;2023-02-22T15:35:18;94.7;85.9;
13030;PMS7003;6582;54.644;9.760;2023-02-22T15:40:06;95.2;86.8;
13030;PMS7003;6582;54.644;9.760;2023-02-22T15:45:02;95.9;88.4;
13030;PMS7003;6582;54.644;9.760;2023-02-22T15:50:18;98.3;92.0;
13030;PMS7003;6582;54.644;9.760;2023-02-22T15:55:02;99.7;94.2;
13030;PMS7003;6582;54.644;9.760;2023-02-22T16:00:02;100.2;95.0;
13030;PMS7003;6582;54.644;9.760;2023-02-22T16:05:04;99.4;93.6;
13030;PMS7003;6582;54.644;9.760;2023-02-22T16:10:03;98.9;92.5;
13030;PMS7003;6582;54.644;9.760;2023-02-22T16:15:13;81.2;75.2;
13030;PMS7003;6582;54.644;9.760;2023-02-22T16:40:09;118.2;117.0;
13030;PMS7003;6582;54.644;9.760;2023-02-22T16:45:02;131.3;129.3;
13030;PMS7003;6582;54.644;9.760;2023-02-22T16:50:05;129.4;127.4;
13030;PMS7003;6582;54.644;9.760;2023-02-22T16:55:01;128.7;127.1;
13030;PMS7003;6582;54.644;9.760;2023-02-22T17:00:02;125.4;123.6;
13030;PMS7003;6582;54.644;9.760;2023-02-22T17:05:01;126.5;124.7;
13030;PMS7003;6582;54.644;9.760;2023-02-22T17:10:13;114.7;110.8;
13030;PMS7003;6582;54.644;9.760;2023-02-22T17:15:02;106.6;100.7;
13030;PMS7003;6582;54.644;9.760;2023-02-22T17:20:02;97.4;89.4;
13030;PMS7003;6582;54.644;9.760;2023-02-22T17:25:08;96.0;86.8;
13030;PMS7003;6582;54.644;9.760;2023-02-22T17:30:11;90.5;80.0;
13030;PMS7003;6582;54.644;9.760;2023-02-22T17:35:02;91.0;81.5;
13030;PMS7003;6582;54.644;9.760;2023-02-22T17:40:03;87.0;78.2;
13030;PMS7003;6582;54.644;9.760;2023-02-22T17:45:02;98.4;91.6;
13030;PMS7003;6582;54.644;9.760;2023-02-22T17:50:02;88.1;81.6;
13030;PMS7003;6582;54.644;9.760;2023-02-22T17:55:02;93.6;88.8;
13030;PMS7003;6582;54.644;9.760;2023-02-22T18:00:03;97.4;94.1;
13030;PMS7003;6582;54.644;9.760;2023-02-22T18:05:02;106.5;105.0;
13030;PMS7003;6582;54.644;9.760;2023-02-22T18:10:02;97.0;93.3;
13030;PMS7003;6582;54.644;9.760;2023-02-22T18:15:02;105.4;101.1;
13030;PMS7003;6582;54.644;9.760;2023-02-22T18:20:02;100.8;95.4;
13030;PMS7003;6582;54.644;9.760;2023-02-22T18:25:03;96.4;88.4;
13030;PMS7003;6582;54.644;9.760;2023-02-22T18:30:03;92.3;81.9;
13030;PMS7003;6582;54.644;9.760;2023-02-22T18:35:01;91.4;81.3;
13030;PMS7003;6582;54.644;9.760;2023-02-22T18:40:06;89.0;78.4;
13030;PMS7003;6582;54.644;9.760;2023-02-22T18:45:02;85.0;73.1;
13030;PMS7003;6582;54.644;9.760;2023-02-22T18:50:03;86.2;75.2;
13030;PMS7003;6582;54.644;9.760;2023-02-22T18:55:02;69.1;60.5;
13030;PMS7003;6582;54.644;9.760;2023-02-22T19:00:09;68.0;59.5;
13030;PMS7003;6582;54.644;9.760;2023-02-22T19:05:02;68.6;60.3;
13030;PMS7003;6582;54.644;9.760;2023-02-22T19:10:01;69.3;62.0;
13030;PMS7003;6582;54.644;9.760;2023-02-22T19:15:02;66.3;58.6;
13030;PMS7003;6582;54.644;9.760;2023-02-22T19:20:02;83.5;74.2;
13030;PMS7003;6582;54.644;9.760;2023-02-22T19:25:06;89.6;81.2;
13030;PMS7003;6582;54.644;9.760;2023-02-22T19:30:06;93.6;86.1;
13030;PMS7003;6582;54.644;9.760;2023-02-22T19:35:02;96.1;88.6;
13030;PMS7003;6582;54.644;9.760;2023-02-22T19:45:02;98.6;91.6;
13030;PMS7003;6582;54.644;9.760;2023-02-22T19:50:01;97.8;91.0;
13030;PMS7003;6582;54.644;9.760;2023-02-22T20:00:02;93.3;86.2;
13030;PMS7003;6582;54.644;9.760;2023-02-22T20:05:01;89.4;81.7;
13030;PMS7003;6582;54.644;9.760;2023-02-22T20:10:11;86.2;78.2;
13030;PMS7003;6582;54.644;9.760;2023-02-22T20:15:01;84.5;76.0;
13030;PMS7003;6582;54.644;9.760;2023-02-22T20:40:05;95.6;88.4;
13030;PMS7003;6582;54.644;9.760;2023-02-22T20:45:01;87.8;80.2;
13030;PMS7003;6582;54.644;9.760;2023-02-22T20:50:02;84.1;76.2;
13030;PMS7003;6582;54.644;9.760;2023-02-22T20:55:02;81.6;73.2;
13030;PMS7003;6582;54.644;9.760;2023-02-22T21:00:02;77.8;69.2;
13030;PMS7003;6582;54.644;9.760;2023-02-22T21:05:03;72.0;63.3;
13030;PMS7003;6582;54.644;9.760;2023-02-22T21:10:01;72.4;63.9;
13030;PMS7003;6582;54.644;9.760;2023-02-22T21:15:01;70.3;61.9;
13030;PMS7003;6582;54.644;9.760;2023-02-22T21:20:01;69.4;61.6;
13030;PMS7003;6582;54.644;9.760;2023-02-22T21:25:02;86.2;80.1;
13030;PMS7003;6582;54.644;9.760;2023-02-22T21:30:01;104.4;99.9;
13030;PMS7003;6582;54.644;9.760;2023-02-22T21:35:06;99.6;95.1;
13030;PMS7003;6582;54.644;9.760;2023-02-22T21:40:02;117.1;113.8;
13030;PMS7003;6582;54.644;9.760;2023-02-22T21:45:02;131.5;129.6;
13030;PMS7003;6582;54.644;9.760;2023-02-22T21:50:01;137.0;134.8;
13030;PMS7003;6582;54.644;9.760;2023-02-22T21:55:08;137.3;135.2;
13030;PMS7003;6582;54.644;9.760;2023-02-22T22:00:02;160.0;159.3;
13030;PMS7003;6582;54.644;9.760;2023-02-22T22:05:01;160.9;160.1;
13030;PMS7003;6582;54.644;9.760;2023-02-22T22:10:01;162.6;161.9;
13030;PMS7003;6582;54.644;9.760;2023-02-22T22:15:01;157.0;156.6;
13030;PMS7003;6582;54.644;9.760;2023-02-22T22:20:01;129.5;129.0;
13030;PMS7003;6582;54.644;9.760;2023-02-22T22:25:01;123.1;122.6;
13030;PMS7003;6582;54.644;9.760;2023-02-22T22:30:01;119.9;119.8;
13030;PMS7003;6582;54.644;9.760;2023-02-22T22:35:02;116.6;116.5;
13030;PMS7003;6582;54.644;9.760;2023-02-22T22:40:10;115.8;115.4;
13030;PMS7003;6582;54.644;9.760;2023-02-22T22:45:02;139.8;139.4;
13030;PMS7003;6582;54.644;9.760;2023-02-22T22:50:01;137.3;136.6;
13030;PMS7003;6582;54.644;9.760;2023-02-22T22:55:02;133.7;132.7;
13030;PMS7003;6582;54.644;9.760;2023-02-22T23:00:01;134.0;133.0;
13030;PMS7003;6582;54.644;9.760;2023-02-22T23:05:07;130.4;129.5;
13030;PMS7003;6582;54.644;9.760;2023-02-22T23:10:02;124.1;122.4;
13030;PMS7003;6582;54.644;9.760;2023-02-22T23:15:02;118.5;115.8;
13030;PMS7003;6582;54.644;9.760;2023-02-22T23:20:02;109.3;104.8;
13030;PMS7003;6582;54.644;9.760;2023-02-22T23:25:03;101.0;95.0;
13030;PMS7003;6582;54.644;9.760;2023-02-22T23:30:02;90.0;82.2;
13030;PMS7003;6582;54.644;9.760;2023-02-22T23:35:02;81.4;72.6;
13030;PMS7003;6582;54.644;9.760;2023-02-22T23:40:02;78.2;68.8;
13030;PMS7003;6582;54.644;9.760;2023-02-22T23:45:01;76.3;67.1;
13030;PMS7003;6582;54.644;9.760;2023-02-22T23:50:01;70.8;61.5;
13030;PMS7003;6582;54.644;9.760;2023-02-22T23:55:01;65.8;57.6;
